Meeks Bay, California
Current Conditions -  °F | °C
As of 5:53 PM on Saturday 25 Oct 2014 (Local Time) from KTVL Reporting Station
Few Clouds Few Clouds  
Wind Chill: 33°   Ceiling: Unl
Heat Index: 40°   Visibility: 10mi
Dew Point: 34°   Wind: 10mph
Humidity: 79%   Direction: 190°S
Pressure: 30.12"   Gusts: NA
Location:  39.0516°N, 120.165°W
Report Text: KTVL 260053Z AUTO 19009KT 10SM FEW028 FEW055 04/01 A3012 RMK AO2 RAE16 SLP171 P0000 T00440011
Loading
Personal Weather Stations






























Interactive Weather Map
Tropical Storm Tracking
New forecast layout! Learn more

10-Day Weather Forecast

Advertisements
Track Severe Weather on mobile